sensor_id;sensor_type;location;lat;lon;timestamp;P1;durP1;ratioP1;P2;durP2;ratioP2
36221;SDS011;22266;52.340;4.962;2023-04-24T00:00:35;2.75;;;2.75;;
36221;SDS011;22266;52.340;4.962;2023-04-24T00:03:02;4.50;;;4.00;;
36221;SDS011;22266;52.340;4.962;2023-04-24T00:05:29;4.00;;;4.00;;
36221;SDS011;22266;52.340;4.962;2023-04-24T00:07:55;4.00;;;4.00;;
36221;SDS011;22266;52.340;4.962;2023-04-24T00:10:22;6.50;;;6.00;;
36221;SDS011;22266;52.340;4.962;2023-04-24T00:12:48;6.00;;;5.75;;
36221;SDS011;22266;52.340;4.962;2023-04-24T00:15:15;3.25;;;3.00;;
36221;SDS011;22266;52.340;4.962;2023-04-24T00:17:41;1.50;;;0.50;;
36221;SDS011;22266;52.340;4.962;2023-04-24T00:20:08;1.00;;;0.00;;
36221;SDS011;22266;52.340;4.962;2023-04-24T00:22:36;0.00;;;0.00;;
36221;SDS011;22266;52.340;4.962;2023-04-24T00:25:02;0.00;;;0.00;;
36221;SDS011;22266;52.340;4.962;2023-04-24T00:27:29;0.25;;;0.25;;
36221;SDS011;22266;52.340;4.962;2023-04-24T00:29:56;0.00;;;0.00;;
36221;SDS011;22266;52.340;4.962;2023-04-24T00:32:22;2.00;;;0.75;;
36221;SDS011;22266;52.340;4.962;2023-04-24T00:34:49;0.00;;;0.00;;
36221;SDS011;22266;52.340;4.962;2023-04-24T00:37:15;0.00;;;0.00;;
36221;SDS011;22266;52.340;4.962;2023-04-24T00:39:43;0.00;;;0.00;;
36221;SDS011;22266;52.340;4.962;2023-04-24T00:42:10;0.00;;;0.00;;
36221;SDS011;22266;52.340;4.962;2023-04-24T00:44:37;0.00;;;0.00;;
36221;SDS011;22266;52.340;4.962;2023-04-24T00:47:04;0.25;;;0.25;;
36221;SDS011;22266;52.340;4.962;2023-04-24T00:49:31;0.00;;;0.00;;
36221;SDS011;22266;52.340;4.962;2023-04-24T00:51:57;0.00;;;0.00;;
36221;SDS011;22266;52.340;4.962;2023-04-24T00:54:25;0.00;;;0.00;;
36221;SDS011;22266;52.340;4.962;2023-04-24T00:56:51;2.00;;;2.00;;
36221;SDS011;22266;52.340;4.962;2023-04-24T00:59:18;1.00;;;1.00;;
36221;SDS011;22266;52.340;4.962;2023-04-24T01:01:45;3.50;;;2.00;;
36221;SDS011;22266;52.340;4.962;2023-04-24T01:04:12;7.00;;;3.25;;
36221;SDS011;22266;52.340;4.962;2023-04-24T01:06:39;6.25;;;6.25;;
36221;SDS011;22266;52.340;4.962;2023-04-24T01:09:07;1.00;;;1.00;;
36221;SDS011;22266;52.340;4.962;2023-04-24T01:11:34;1.00;;;1.00;;
36221;SDS011;22266;52.340;4.962;2023-04-24T01:14:03;1.25;;;1.25;;
36221;SDS011;22266;52.340;4.962;2023-04-24T01:16:30;0.75;;;0.00;;
36221;SDS011;22266;52.340;4.962;2023-04-24T01:18:57;0.00;;;0.00;;
36221;SDS011;22266;52.340;4.962;2023-04-24T01:21:23;0.25;;;0.25;;
36221;SDS011;22266;52.340;4.962;2023-04-24T01:23:53;0.00;;;0.00;;
36221;SDS011;22266;52.340;4.962;2023-04-24T01:26:21;0.00;;;0.00;;
36221;SDS011;22266;52.340;4.962;2023-04-24T01:28:51;0.00;;;0.00;;
36221;SDS011;22266;52.340;4.962;2023-04-24T01:31:18;0.00;;;0.00;;
36221;SDS011;22266;52.340;4.962;2023-04-24T01:33:45;0.00;;;0.00;;
36221;SDS011;22266;52.340;4.962;2023-04-24T01:36:11;0.00;;;0.00;;
36221;SDS011;22266;52.340;4.962;2023-04-24T01:38:39;0.00;;;0.00;;
36221;SDS011;22266;52.340;4.962;2023-04-24T01:41:06;0.00;;;0.00;;
36221;SDS011;22266;52.340;4.962;2023-04-24T01:43:32;0.75;;;0.00;;
36221;SDS011;22266;52.340;4.962;2023-04-24T01:45:59;0.00;;;0.00;;
36221;SDS011;22266;52.340;4.962;2023-04-24T01:48:25;0.75;;;0.00;;
36221;SDS011;22266;52.340;4.962;2023-04-24T01:50:52;0.00;;;0.00;;
36221;SDS011;22266;52.340;4.962;2023-04-24T01:53:19;0.00;;;0.00;;
36221;SDS011;22266;52.340;4.962;2023-04-24T01:55:45;0.00;;;0.00;;
36221;SDS011;22266;52.340;4.962;2023-04-24T01:58:12;0.00;;;0.00;;
36221;SDS011;22266;52.340;4.962;2023-04-24T02:00:39;0.00;;;0.00;;
36221;SDS011;22266;52.340;4.962;2023-04-24T02:03:06;0.00;;;0.00;;
36221;SDS011;22266;52.340;4.962;2023-04-24T02:05:32;0.25;;;0.00;;
36221;SDS011;22266;52.340;4.962;2023-04-24T02:08:02;0.00;;;0.00;;
36221;SDS011;22266;52.340;4.962;2023-04-24T02:10:28;0.00;;;0.00;;
36221;SDS011;22266;52.340;4.962;2023-04-24T02:12:54;0.00;;;0.00;;
36221;SDS011;22266;52.340;4.962;2023-04-24T02:15:23;0.00;;;0.00;;
36221;SDS011;22266;52.340;4.962;2023-04-24T02:17:49;0.00;;;0.00;;
36221;SDS011;22266;52.340;4.962;2023-04-24T02:20:16;0.00;;;0.00;;
36221;SDS011;22266;52.340;4.962;2023-04-24T02:22:43;1.00;;;0.00;;
36221;SDS011;22266;52.340;4.962;2023-04-24T02:25:10;0.00;;;0.00;;
36221;SDS011;22266;52.340;4.962;2023-04-24T02:27:36;0.50;;;0.00;;
36221;SDS011;22266;52.340;4.962;2023-04-24T02:30:04;0.00;;;0.00;;
36221;SDS011;22266;52.340;4.962;2023-04-24T02:32:32;0.00;;;0.00;;
36221;SDS011;22266;52.340;4.962;2023-04-24T02:34:58;0.00;;;0.00;;
36221;SDS011;22266;52.340;4.962;2023-04-24T02:37:25;0.00;;;0.00;;
36221;SDS011;22266;52.340;4.962;2023-04-24T02:39:51;0.00;;;0.00;;
36221;SDS011;22266;52.340;4.962;2023-04-24T02:42:18;0.00;;;0.00;;
36221;SDS011;22266;52.340;4.962;2023-04-24T02:44:44;0.00;;;0.00;;
36221;SDS011;22266;52.340;4.962;2023-04-24T02:47:11;0.00;;;0.00;;
36221;SDS011;22266;52.340;4.962;2023-04-24T02:49:37;0.00;;;0.00;;
36221;SDS011;22266;52.340;4.962;2023-04-24T02:52:04;0.00;;;0.00;;
36221;SDS011;22266;52.340;4.962;2023-04-24T02:54:30;0.00;;;0.00;;
36221;SDS011;22266;52.340;4.962;2023-04-24T02:56:57;0.00;;;0.00;;
36221;SDS011;22266;52.340;4.962;2023-04-24T02:59:23;0.00;;;0.00;;
36221;SDS011;22266;52.340;4.962;2023-04-24T03:01:50;0.00;;;0.00;;
36221;SDS011;22266;52.340;4.962;2023-04-24T03:04:16;0.00;;;0.00;;
36221;SDS011;22266;52.340;4.962;2023-04-24T03:06:47;0.00;;;0.00;;
36221;SDS011;22266;52.340;4.962;2023-04-24T03:09:13;0.00;;;0.00;;
36221;SDS011;22266;52.340;4.962;2023-04-24T03:11:40;0.00;;;0.00;;
36221;SDS011;22266;52.340;4.962;2023-04-24T03:14:07;0.00;;;0.00;;
36221;SDS011;22266;52.340;4.962;2023-04-24T03:16:35;0.00;;;0.00;;
36221;SDS011;22266;52.340;4.962;2023-04-24T03:19:02;0.00;;;0.00;;
36221;SDS011;22266;52.340;4.962;2023-04-24T03:21:31;0.00;;;0.00;;
36221;SDS011;22266;52.340;4.962;2023-04-24T03:23:58;0.00;;;0.00;;
36221;SDS011;22266;52.340;4.962;2023-04-24T03:26:24;0.00;;;0.00;;
36221;SDS011;22266;52.340;4.962;2023-04-24T03:29:06;0.25;;;0.00;;
36221;SDS011;22266;52.340;4.962;2023-04-24T03:31:33;0.00;;;0.00;;
36221;SDS011;22266;52.340;4.962;2023-04-24T03:34:00;1.00;;;0.00;;
36221;SDS011;22266;52.340;4.962;2023-04-24T03:36:27;0.00;;;0.00;;
36221;SDS011;22266;52.340;4.962;2023-04-24T03:38:54;0.00;;;0.00;;
36221;SDS011;22266;52.340;4.962;2023-04-24T03:41:24;0.00;;;0.00;;
36221;SDS011;22266;52.340;4.962;2023-04-24T03:43:59;0.00;;;0.00;;
36221;SDS011;22266;52.340;4.962;2023-04-24T03:46:26;0.00;;;0.00;;
36221;SDS011;22266;52.340;4.962;2023-04-24T03:48:57;0.00;;;0.00;;
36221;SDS011;22266;52.340;4.962;2023-04-24T03:51:28;0.00;;;0.00;;
36221;SDS011;22266;52.340;4.962;2023-04-24T03:54:02;0.00;;;0.00;;
36221;SDS011;22266;52.340;4.962;2023-04-24T03:56:30;0.00;;;0.00;;
36221;SDS011;22266;52.340;4.962;2023-04-24T03:58:57;0.00;;;0.00;;
36221;SDS011;22266;52.340;4.962;2023-04-24T04:01:24;0.00;;;0.00;;
36221;SDS011;22266;52.340;4.962;2023-04-24T04:03:57;0.00;;;0.00;;
36221;SDS011;22266;52.340;4.962;2023-04-24T04:06:25;0.75;;;0.00;;
36221;SDS011;22266;52.340;4.962;2023-04-24T04:08:54;0.00;;;0.00;;
36221;SDS011;22266;52.340;4.962;2023-04-24T04:11:20;0.00;;;0.00;;
36221;SDS011;22266;52.340;4.962;2023-04-24T04:13:47;0.00;;;0.00;;
36221;SDS011;22266;52.340;4.962;2023-04-24T04:16:16;0.00;;;0.00;;
36221;SDS011;22266;52.340;4.962;2023-04-24T04:18:44;0.00;;;0.00;;
36221;SDS011;22266;52.340;4.962;2023-04-24T04:21:11;0.00;;;0.00;;
36221;SDS011;22266;52.340;4.962;2023-04-24T04:23:38;0.00;;;0.00;;
36221;SDS011;22266;52.340;4.962;2023-04-24T04:26:12;0.00;;;0.00;;
36221;SDS011;22266;52.340;4.962;2023-04-24T04:28:58;0.00;;;0.00;;
36221;SDS011;22266;52.340;4.962;2023-04-24T04:31:27;0.00;;;0.00;;
36221;SDS011;22266;52.340;4.962;2023-04-24T04:33:55;0.00;;;0.00;;
36221;SDS011;22266;52.340;4.962;2023-04-24T04:36:22;0.00;;;0.00;;
36221;SDS011;22266;52.340;4.962;2023-04-24T04:38:56;0.00;;;0.00;;
36221;SDS011;22266;52.340;4.962;2023-04-24T04:41:43;0.00;;;0.00;;
36221;SDS011;22266;52.340;4.962;2023-04-24T04:44:10;0.00;;;0.00;;
36221;SDS011;22266;52.340;4.962;2023-04-24T04:46:37;0.00;;;0.00;;
36221;SDS011;22266;52.340;4.962;2023-04-24T04:49:11;0.00;;;0.00;;
36221;SDS011;22266;52.340;4.962;2023-04-24T04:51:38;0.00;;;0.00;;
36221;SDS011;22266;52.340;4.962;2023-04-24T04:54:07;0.00;;;0.00;;
36221;SDS011;22266;52.340;4.962;2023-04-24T04:56:35;0.00;;;0.00;;
36221;SDS011;22266;52.340;4.962;2023-04-24T04:59:02;0.00;;;0.00;;
36221;SDS011;22266;52.340;4.962;2023-04-24T05:01:29;0.00;;;0.00;;
36221;SDS011;22266;52.340;4.962;2023-04-24T05:03:56;0.00;;;0.00;;
36221;SDS011;22266;52.340;4.962;2023-04-24T05:06:23;0.00;;;0.00;;
36221;SDS011;22266;52.340;4.962;2023-04-24T05:08:50;0.00;;;0.00;;
36221;SDS011;22266;52.340;4.962;2023-04-24T05:11:28;0.00;;;0.00;;
36221;SDS011;22266;52.340;4.962;2023-04-24T05:13:56;0.00;;;0.00;;
36221;SDS011;22266;52.340;4.962;2023-04-24T05:16:31;0.00;;;0.00;;
36221;SDS011;22266;52.340;4.962;2023-04-24T05:18:58;0.00;;;0.00;;
36221;SDS011;22266;52.340;4.962;2023-04-24T05:21:30;0.00;;;0.00;;
36221;SDS011;22266;52.340;4.962;2023-04-24T05:23:57;0.00;;;0.00;;
36221;SDS011;22266;52.340;4.962;2023-04-24T05:26:44;0.00;;;0.00;;
36221;SDS011;22266;52.340;4.962;2023-04-24T05:29:12;1.00;;;1.00;;
36221;SDS011;22266;52.340;4.962;2023-04-24T05:31:38;0.00;;;0.00;;
36221;SDS011;22266;52.340;4.962;2023-04-24T05:34:05;1.00;;;0.25;;
36221;SDS011;22266;52.340;4.962;2023-04-24T05:36:32;4.00;;;2.00;;
36221;SDS011;22266;52.340;4.962;2023-04-24T05:38:59;5.75;;;5.75;;
36221;SDS011;22266;52.340;4.962;2023-04-24T05:41:25;11.00;;;11.00;;
36221;SDS011;22266;52.340;4.962;2023-04-24T05:43:52;9.75;;;9.00;;
36221;SDS011;22266;52.340;4.962;2023-04-24T05:46:19;15.00;;;14.50;;
36221;SDS011;22266;52.340;4.962;2023-04-24T05:48:46;11.25;;;11.25;;
36221;SDS011;22266;52.340;4.962;2023-04-24T05:51:12;11.25;;;9.00;;
36221;SDS011;22266;52.340;4.962;2023-04-24T05:53:39;18.50;;;16.75;;
36221;SDS011;22266;52.340;4.962;2023-04-24T05:56:06;18.50;;;16.50;;
36221;SDS011;22266;52.340;4.962;2023-04-24T05:58:34;12.75;;;10.75;;
36221;SDS011;22266;52.340;4.962;2023-04-24T06:01:00;19.25;;;16.75;;
36221;SDS011;22266;52.340;4.962;2023-04-24T06:03:28;22.50;;;18.00;;
36221;SDS011;22266;52.340;4.962;2023-04-24T06:05:55;15.75;;;14.75;;
36221;SDS011;22266;52.340;4.962;2023-04-24T06:08:22;18.75;;;18.75;;
36221;SDS011;22266;52.340;4.962;2023-04-24T06:10:49;23.00;;;19.50;;
36221;SDS011;22266;52.340;4.962;2023-04-24T06:13:17;21.00;;;19.25;;
36221;SDS011;22266;52.340;4.962;2023-04-24T06:16:02;24.75;;;17.50;;
36221;SDS011;22266;52.340;4.962;2023-04-24T06:18:33;16.75;;;14.75;;
36221;SDS011;22266;52.340;4.962;2023-04-24T06:20:59;17.00;;;17.00;;
36221;SDS011;22266;52.340;4.962;2023-04-24T06:23:26;19.00;;;16.50;;
36221;SDS011;22266;52.340;4.962;2023-04-24T06:25:53;19.50;;;17.50;;
36221;SDS011;22266;52.340;4.962;2023-04-24T06:28:19;21.75;;;17.00;;
36221;SDS011;22266;52.340;4.962;2023-04-24T06:30:45;17.75;;;15.75;;
36221;SDS011;22266;52.340;4.962;2023-04-24T06:33:12;16.75;;;16.75;;
36221;SDS011;22266;52.340;4.962;2023-04-24T06:35:44;14.25;;;12.75;;
36221;SDS011;22266;52.340;4.962;2023-04-24T06:38:10;15.00;;;15.00;;
36221;SDS011;22266;52.340;4.962;2023-04-24T06:40:37;12.75;;;12.75;;
36221;SDS011;22266;52.340;4.962;2023-04-24T06:43:04;16.50;;;16.00;;
36221;SDS011;22266;52.340;4.962;2023-04-24T06:45:32;11.50;;;11.50;;
36221;SDS011;22266;52.340;4.962;2023-04-24T06:47:58;16.75;;;14.75;;
36221;SDS011;22266;52.340;4.962;2023-04-24T06:50:25;17.25;;;14.50;;
36221;SDS011;22266;52.340;4.962;2023-04-24T06:52:52;13.25;;;13.00;;
36221;SDS011;22266;52.340;4.962;2023-04-24T06:55:18;18.00;;;14.00;;
36221;SDS011;22266;52.340;4.962;2023-04-24T06:57:44;14.00;;;13.25;;
36221;SDS011;22266;52.340;4.962;2023-04-24T07:00:11;12.00;;;12.00;;
36221;SDS011;22266;52.340;4.962;2023-04-24T07:02:38;16.75;;;16.00;;
36221;SDS011;22266;52.340;4.962;2023-04-24T07:05:05;13.25;;;12.75;;
36221;SDS011;22266;52.340;4.962;2023-04-24T07:07:32;15.25;;;11.75;;
36221;SDS011;22266;52.340;4.962;2023-04-24T07:10:00;16.00;;;12.50;;
36221;SDS011;22266;52.340;4.962;2023-04-24T07:12:26;13.50;;;13.25;;
36221;SDS011;22266;52.340;4.962;2023-04-24T07:14:53;9.75;;;9.75;;
36221;SDS011;22266;52.340;4.962;2023-04-24T07:17:20;14.25;;;12.00;;
36221;SDS011;22266;52.340;4.962;2023-04-24T07:19:46;16.00;;;11.75;;
36221;SDS011;22266;52.340;4.962;2023-04-24T07:22:13;15.25;;;13.75;;
36221;SDS011;22266;52.340;4.962;2023-04-24T07:24:45;2.00;;;2.00;;
36221;SDS011;22266;52.340;4.962;2023-04-24T07:27:11;9.75;;;9.75;;
36221;SDS011;22266;52.340;4.962;2023-04-24T07:29:38;8.50;;;8.50;;
36221;SDS011;22266;52.340;4.962;2023-04-24T07:32:05;9.75;;;5.75;;
36221;SDS011;22266;52.340;4.962;2023-04-24T07:34:32;11.50;;;8.00;;
36221;SDS011;22266;52.340;4.962;2023-04-24T07:36:58;10.50;;;10.50;;
36221;SDS011;22266;52.340;4.962;2023-04-24T07:39:25;3.00;;;3.00;;
36221;SDS011;22266;52.340;4.962;2023-04-24T07:41:52;7.50;;;6.00;;
36221;SDS011;22266;52.340;4.962;2023-04-24T07:44:19;8.75;;;7.25;;
36221;SDS011;22266;52.340;4.962;2023-04-24T07:46:46;2.75;;;2.75;;
36221;SDS011;22266;52.340;4.962;2023-04-24T07:49:13;3.50;;;2.00;;
36221;SDS011;22266;52.340;4.962;2023-04-24T07:51:42;5.75;;;4.00;;
36221;SDS011;22266;52.340;4.962;2023-04-24T07:54:08;5.00;;;3.75;;
36221;SDS011;22266;52.340;4.962;2023-04-24T07:56:35;5.00;;;3.00;;
36221;SDS011;22266;52.340;4.962;2023-04-24T07:59:05;3.50;;;2.75;;
36221;SDS011;22266;52.340;4.962;2023-04-24T08:01:31;8.00;;;5.50;;
36221;SDS011;22266;52.340;4.962;2023-04-24T08:03:58;5.75;;;5.00;;
36221;SDS011;22266;52.340;4.962;2023-04-24T08:06:25;7.00;;;7.00;;
36221;SDS011;22266;52.340;4.962;2023-04-24T08:08:56;2.00;;;2.00;;
36221;SDS011;22266;52.340;4.962;2023-04-24T08:11:23;5.50;;;5.50;;
36221;SDS011;22266;52.340;4.962;2023-04-24T08:13:50;4.00;;;1.50;;
36221;SDS011;22266;52.340;4.962;2023-04-24T08:16:17;5.00;;;4.00;;
36221;SDS011;22266;52.340;4.962;2023-04-24T08:18:43;6.25;;;4.50;;
36221;SDS011;22266;52.340;4.962;2023-04-24T08:21:10;4.00;;;2.00;;
36221;SDS011;22266;52.340;4.962;2023-04-24T08:23:38;3.75;;;2.00;;
36221;SDS011;22266;52.340;4.962;2023-04-24T08:26:05;2.00;;;2.00;;
36221;SDS011;22266;52.340;4.962;2023-04-24T08:28:33;4.25;;;3.00;;
36221;SDS011;22266;52.340;4.962;2023-04-24T08:31:00;2.50;;;1.00;;
36221;SDS011;22266;52.340;4.962;2023-04-24T08:33:26;2.00;;;1.25;;
36221;SDS011;22266;52.340;4.962;2023-04-24T08:35:52;4.75;;;2.00;;
36221;SDS011;22266;52.340;4.962;2023-04-24T08:38:19;5.50;;;4.50;;
36221;SDS011;22266;52.340;4.962;2023-04-24T08:40:46;2.00;;;2.00;;
36221;SDS011;22266;52.340;4.962;2023-04-24T08:43:15;1.25;;;1.25;;
36221;SDS011;22266;52.340;4.962;2023-04-24T08:45:43;2.00;;;2.00;;
36221;SDS011;22266;52.340;4.962;2023-04-24T08:48:09;1.00;;;1.00;;
36221;SDS011;22266;52.340;4.962;2023-04-24T08:50:52;5.00;;;2.75;;
36221;SDS011;22266;52.340;4.962;2023-04-24T08:53:19;1.00;;;1.00;;
36221;SDS011;22266;52.340;4.962;2023-04-24T08:55:46;2.25;;;1.25;;
36221;SDS011;22266;52.340;4.962;2023-04-24T08:58:15;1.00;;;1.00;;
36221;SDS011;22266;52.340;4.962;2023-04-24T09:00:43;5.50;;;1.75;;
36221;SDS011;22266;52.340;4.962;2023-04-24T09:03:13;2.00;;;2.00;;
36221;SDS011;22266;52.340;4.962;2023-04-24T09:05:42;2.00;;;2.00;;
36221;SDS011;22266;52.340;4.962;2023-04-24T09:08:13;1.50;;;1.50;;
36221;SDS011;22266;52.340;4.962;2023-04-24T09:10:40;1.50;;;1.50;;
36221;SDS011;22266;52.340;4.962;2023-04-24T09:13:07;2.00;;;2.00;;
36221;SDS011;22266;52.340;4.962;2023-04-24T09:15:36;2.75;;;1.75;;
36221;SDS011;22266;52.340;4.962;2023-04-24T09:18:04;5.50;;;1.00;;
36221;SDS011;22266;52.340;4.962;2023-04-24T09:20:31;1.00;;;1.00;;
36221;SDS011;22266;52.340;4.962;2023-04-24T09:22:58;3.50;;;2.00;;
36221;SDS011;22266;52.340;4.962;2023-04-24T09:25:31;1.50;;;1.50;;
36221;SDS011;22266;52.340;4.962;2023-04-24T09:28:02;3.00;;;1.50;;
36221;SDS011;22266;52.340;4.962;2023-04-24T09:30:30;1.00;;;1.00;;
36221;SDS011;22266;52.340;4.962;2023-04-24T09:35:56;1.00;;;1.00;;
36221;SDS011;22266;52.340;4.962;2023-04-24T09:38:36;1.00;;;1.00;;
36221;SDS011;22266;52.340;4.962;2023-04-24T09:41:07;1.00;;;0.00;;
36221;SDS011;22266;52.340;4.962;2023-04-24T09:43:34;1.00;;;1.00;;
36221;SDS011;22266;52.340;4.962;2023-04-24T09:46:06;1.50;;;1.25;;
36221;SDS011;22266;52.340;4.962;2023-04-24T09:48:34;1.00;;;0.00;;
36221;SDS011;22266;52.340;4.962;2023-04-24T09:51:03;4.25;;;4.00;;
36221;SDS011;22266;52.340;4.962;2023-04-24T09:53:33;3.00;;;1.50;;
36221;SDS011;22266;52.340;4.962;2023-04-24T09:56:03;1.00;;;1.00;;
36221;SDS011;22266;52.340;4.962;2023-04-24T09:58:34;0.00;;;0.00;;
36221;SDS011;22266;52.340;4.962;2023-04-24T10:01:04;1.00;;;1.00;;
36221;SDS011;22266;52.340;4.962;2023-04-24T10:03:31;1.00;;;1.00;;
36221;SDS011;22266;52.340;4.962;2023-04-24T10:06:02;1.00;;;1.00;;
36221;SDS011;22266;52.340;4.962;2023-04-24T10:08:36;1.25;;;1.25;;
36221;SDS011;22266;52.340;4.962;2023-04-24T10:11:03;4.75;;;1.00;;
36221;SDS011;22266;52.340;4.962;2023-04-24T10:13:30;2.25;;;1.00;;
36221;SDS011;22266;52.340;4.962;2023-04-24T10:15:56;0.50;;;0.00;;
36221;SDS011;22266;52.340;4.962;2023-04-24T10:18:26;0.00;;;0.00;;
36221;SDS011;22266;52.340;4.962;2023-04-24T10:20:53;0.50;;;0.50;;
36221;SDS011;22266;52.340;4.962;2023-04-24T10:23:21;0.00;;;0.00;;
36221;SDS011;22266;52.340;4.962;2023-04-24T10:25:48;1.00;;;0.00;;
36221;SDS011;22266;52.340;4.962;2023-04-24T10:28:15;0.00;;;0.00;;
36221;SDS011;22266;52.340;4.962;2023-04-24T10:30:44;0.00;;;0.00;;
36221;SDS011;22266;52.340;4.962;2023-04-24T10:33:11;2.00;;;0.00;;
36221;SDS011;22266;52.340;4.962;2023-04-24T10:35:40;0.00;;;0.00;;
36221;SDS011;22266;52.340;4.962;2023-04-24T10:38:13;0.00;;;0.00;;
36221;SDS011;22266;52.340;4.962;2023-04-24T10:40:41;1.75;;;1.00;;
36221;SDS011;22266;52.340;4.962;2023-04-24T10:43:09;0.00;;;0.00;;
36221;SDS011;22266;52.340;4.962;2023-04-24T10:45:38;0.00;;;0.00;;
36221;SDS011;22266;52.340;4.962;2023-04-24T10:48:06;0.00;;;0.00;;
36221;SDS011;22266;52.340;4.962;2023-04-24T10:53:12;0.75;;;0.00;;
36221;SDS011;22266;52.340;4.962;2023-04-24T10:55:48;1.00;;;0.00;;
36221;SDS011;22266;52.340;4.962;2023-04-24T10:58:24;1.00;;;0.00;;
36221;SDS011;22266;52.340;4.962;2023-04-24T11:01:04;0.00;;;0.00;;
36221;SDS011;22266;52.340;4.962;2023-04-24T11:03:31;0.00;;;0.00;;
36221;SDS011;22266;52.340;4.962;2023-04-24T11:06:00;1.00;;;0.00;;
36221;SDS011;22266;52.340;4.962;2023-04-24T11:08:31;1.00;;;1.00;;
36221;SDS011;22266;52.340;4.962;2023-04-24T11:11:09;1.00;;;0.00;;
36221;SDS011;22266;52.340;4.962;2023-04-24T11:16:30;2.50;;;0.00;;
36221;SDS011;22266;52.340;4.962;2023-04-24T11:19:07;0.00;;;0.00;;
36221;SDS011;22266;52.340;4.962;2023-04-24T11:21:57;0.25;;;0.25;;
36221;SDS011;22266;52.340;4.962;2023-04-24T11:24:31;0.00;;;0.00;;
36221;SDS011;22266;52.340;4.962;2023-04-24T11:27:19;0.00;;;0.00;;
36221;SDS011;22266;52.340;4.962;2023-04-24T11:34:52;0.00;;;0.00;;
36221;SDS011;22266;52.340;4.962;2023-04-24T11:37:21;0.00;;;0.00;;
36221;SDS011;22266;52.340;4.962;2023-04-24T11:39:57;0.00;;;0.00;;
36221;SDS011;22266;52.340;4.962;2023-04-24T11:42:25;0.00;;;0.00;;
36221;SDS011;22266;52.340;4.962;2023-04-24T11:44:52;0.00;;;0.00;;
36221;SDS011;22266;52.340;4.962;2023-04-24T11:47:19;1.00;;;0.00;;
36221;SDS011;22266;52.340;4.962;2023-04-24T11:49:45;0.50;;;0.00;;
36221;SDS011;22266;52.340;4.962;2023-04-24T11:52:15;0.00;;;0.00;;
36221;SDS011;22266;52.340;4.962;2023-04-24T11:54:46;0.00;;;0.00;;
36221;SDS011;22266;52.340;4.962;2023-04-24T11:57:15;0.00;;;0.00;;
36221;SDS011;22266;52.340;4.962;2023-04-24T11:59:42;0.00;;;0.00;;
36221;SDS011;22266;52.340;4.962;2023-04-24T12:02:09;0.50;;;0.50;;
36221;SDS011;22266;52.340;4.962;2023-04-24T12:04:46;0.50;;;0.00;;
36221;SDS011;22266;52.340;4.962;2023-04-24T12:07:13;0.00;;;0.00;;
36221;SDS011;22266;52.340;4.962;2023-04-24T12:09:43;0.00;;;0.00;;
36221;SDS011;22266;52.340;4.962;2023-04-24T12:12:13;3.50;;;1.00;;
36221;SDS011;22266;52.340;4.962;2023-04-24T12:14:52;1.00;;;1.00;;
36221;SDS011;22266;52.340;4.962;2023-04-24T12:17:27;2.00;;;1.00;;
36221;SDS011;22266;52.340;4.962;2023-04-24T12:20:01;3.75;;;1.00;;
36221;SDS011;22266;52.340;4.962;2023-04-24T12:22:45;1.50;;;1.00;;
36221;SDS011;22266;52.340;4.962;2023-04-24T12:25:28;1.00;;;1.00;;
36221;SDS011;22266;52.340;4.962;2023-04-24T12:30:32;2.00;;;0.50;;
36221;SDS011;22266;52.340;4.962;2023-04-24T12:33:01;1.75;;;1.00;;
36221;SDS011;22266;52.340;4.962;2023-04-24T12:35:30;2.00;;;2.00;;
36221;SDS011;22266;52.340;4.962;2023-04-24T12:38:09;2.50;;;1.25;;
36221;SDS011;22266;52.340;4.962;2023-04-24T12:40:36;2.75;;;2.00;;
36221;SDS011;22266;52.340;4.962;2023-04-24T12:43:12;0.75;;;0.75;;
36221;SDS011;22266;52.340;4.962;2023-04-24T12:45:41;2.00;;;2.00;;
36221;SDS011;22266;52.340;4.962;2023-04-24T12:48:08;2.00;;;2.00;;
36221;SDS011;22266;52.340;4.962;2023-04-24T12:50:34;1.50;;;1.50;;
36221;SDS011;22266;52.340;4.962;2023-04-24T12:53:02;7.00;;;2.00;;
36221;SDS011;22266;52.340;4.962;2023-04-24T12:55:28;1.00;;;1.00;;
36221;SDS011;22266;52.340;4.962;2023-04-24T12:57:54;4.00;;;2.50;;
36221;SDS011;22266;52.340;4.962;2023-04-24T13:00:22;4.75;;;4.00;;
36221;SDS011;22266;52.340;4.962;2023-04-24T13:02:48;1.75;;;1.50;;
36221;SDS011;22266;52.340;4.962;2023-04-24T13:05:15;1.75;;;1.25;;
36221;SDS011;22266;52.340;4.962;2023-04-24T13:07:42;2.00;;;1.00;;
36221;SDS011;22266;52.340;4.962;2023-04-24T13:10:09;1.25;;;1.00;;
36221;SDS011;22266;52.340;4.962;2023-04-24T13:12:35;5.50;;;4.00;;
36221;SDS011;22266;52.340;4.962;2023-04-24T13:15:02;3.00;;;3.00;;
36221;SDS011;22266;52.340;4.962;2023-04-24T13:17:29;5.50;;;4.00;;
36221;SDS011;22266;52.340;4.962;2023-04-24T13:19:56;1.50;;;1.50;;
36221;SDS011;22266;52.340;4.962;2023-04-24T13:22:22;2.00;;;2.00;;
36221;SDS011;22266;52.340;4.962;2023-04-24T13:24:49;2.50;;;2.50;;
36221;SDS011;22266;52.340;4.962;2023-04-24T13:27:16;5.50;;;4.00;;
36221;SDS011;22266;52.340;4.962;2023-04-24T13:29:43;2.25;;;2.25;;
36221;SDS011;22266;52.340;4.962;2023-04-24T13:32:10;1.75;;;1.75;;
36221;SDS011;22266;52.340;4.962;2023-04-24T13:34:36;2.00;;;2.00;;
36221;SDS011;22266;52.340;4.962;2023-04-24T13:37:04;2.00;;;2.00;;
36221;SDS011;22266;52.340;4.962;2023-04-24T13:39:31;2.25;;;2.25;;
36221;SDS011;22266;52.340;4.962;2023-04-24T13:41:58;3.50;;;2.75;;
36221;SDS011;22266;52.340;4.962;2023-04-24T13:44:28;1.50;;;1.00;;
36221;SDS011;22266;52.340;4.962;2023-04-24T13:46:55;6.50;;;4.50;;
36221;SDS011;22266;52.340;4.962;2023-04-24T13:49:23;7.75;;;5.25;;
36221;SDS011;22266;52.340;4.962;2023-04-24T13:51:54;5.00;;;4.00;;
36221;SDS011;22266;52.340;4.962;2023-04-24T13:54:21;4.00;;;4.00;;
36221;SDS011;22266;52.340;4.962;2023-04-24T13:56:49;3.50;;;2.50;;
36221;SDS011;22266;52.340;4.962;2023-04-24T13:59:18;4.25;;;4.00;;
36221;SDS011;22266;52.340;4.962;2023-04-24T14:01:46;1.75;;;1.75;;
36221;SDS011;22266;52.340;4.962;2023-04-24T14:04:14;5.25;;;4.00;;
36221;SDS011;22266;52.340;4.962;2023-04-24T14:06:40;3.50;;;1.00;;
36221;SDS011;22266;52.340;4.962;2023-04-24T14:09:07;2.00;;;2.00;;
36221;SDS011;22266;52.340;4.962;2023-04-24T14:11:34;1.75;;;1.00;;
36221;SDS011;22266;52.340;4.962;2023-04-24T14:14:01;1.75;;;1.50;;
36221;SDS011;22266;52.340;4.962;2023-04-24T14:16:27;2.00;;;2.00;;
36221;SDS011;22266;52.340;4.962;2023-04-24T14:18:54;3.00;;;2.00;;
36221;SDS011;22266;52.340;4.962;2023-04-24T14:21:21;8.00;;;6.00;;
36221;SDS011;22266;52.340;4.962;2023-04-24T14:23:47;2.75;;;2.75;;
36221;SDS011;22266;52.340;4.962;2023-04-24T14:26:14;2.50;;;2.50;;
36221;SDS011;22266;52.340;4.962;2023-04-24T14:28:40;4.00;;;4.00;;
36221;SDS011;22266;52.340;4.962;2023-04-24T14:31:07;6.50;;;4.25;;
36221;SDS011;22266;52.340;4.962;2023-04-24T14:33:34;1.00;;;1.00;;
36221;SDS011;22266;52.340;4.962;2023-04-24T14:36:00;3.00;;;3.00;;
36221;SDS011;22266;52.340;4.962;2023-04-24T14:38:28;8.00;;;6.25;;
36221;SDS011;22266;52.340;4.962;2023-04-24T14:40:56;5.25;;;4.75;;
36221;SDS011;22266;52.340;4.962;2023-04-24T14:43:33;4.25;;;4.25;;
36221;SDS011;22266;52.340;4.962;2023-04-24T14:46:01;3.00;;;2.50;;
36221;SDS011;22266;52.340;4.962;2023-04-24T14:48:28;7.00;;;5.00;;
36221;SDS011;22266;52.340;4.962;2023-04-24T14:50:55;2.00;;;2.00;;
36221;SDS011;22266;52.340;4.962;2023-04-24T14:53:21;2.25;;;2.00;;
36221;SDS011;22266;52.340;4.962;2023-04-24T14:55:47;4.50;;;3.00;;
36221;SDS011;22266;52.340;4.962;2023-04-24T14:58:14;6.25;;;6.00;;
36221;SDS011;22266;52.340;4.962;2023-04-24T15:00:40;4.00;;;4.00;;
36221;SDS011;22266;52.340;4.962;2023-04-24T15:03:07;8.25;;;6.25;;
36221;SDS011;22266;52.340;4.962;2023-04-24T15:05:34;3.00;;;3.00;;
36221;SDS011;22266;52.340;4.962;2023-04-24T15:08:02;2.75;;;2.50;;